Latest Coastal Weather Observations for Bougainville Reef

IDQ60701

Issued at 1:05 pm EST Saturday 22 November 2014 (issued every 10 minutes, with the page automatically refreshed every 10 minutes)

About coastal observations | Map of coastal stations | Coastal observations for QLD | Marine services | Other Formats
Station Details ID: 200840 Name: BOUGAINVILLE REEF Lat: -15.49 Lon: 147.12 Height: 0.0 m
Data from the previous 72 hours. | See also: Recent months for locations in Queensland
Date/Time
EST
Temp

°C
Wind Pressure Rain
since 9am
mm
Weather Cloud Vis
km
Sea
Height
m
Swell
Dir
 
Speed
knots
Gust
knots
hPa Trend Height
m
Period
s
Dir
22/01:00pm 26.6 ESE 11 13 1012.1 - - - - - - - - -
22/12:30pm 26.9 SE 12 13 1012.4 - - - - - - - - -
22/12:00pm 26.5 ESE 11 14 1012.6 - - - - - - - - -
22/11:30am 26.5 SE 12 14 1012.8 - - - - - - - - -
22/11:00am 26.7 ESE 11 13 1013.1 - - - - - - - - -
22/10:30am 26.6 ESE 12 14 1013.4 - - - - - - - - -
22/10:00am 26.6 ESE 13 14 1013.5 - - - - - - - - -
22/09:30am 26.7 SE 13 15 1013.8 - - - - - - - - -
22/09:00am 26.9 ESE 12 14 1013.7 - - - - - - - - -
22/08:30am 26.7 ESE 12 13 1013.7 - - - - - - - - -
22/08:00am 26.7 SE 11 14 1013.5 - - - - - - - - -
22/07:30am 26.7 SE 11 13 1013.6 - - - - - - - - -
22/07:00am 26.6 SE 10 13 1013.2 - - - - - - - - -
22/06:30am 26.5 SE 10 12 1013.0 - - - - - - - - -
22/06:00am 26.3 ESE 11 11 1012.2 - - - - - - - - -
22/05:30am 26.0 ESE 12 13 1012.0 - - - - - - - - -
22/05:00am 26.1 ESE 11 13 1011.8 - - - - - - - - -
22/04:30am 26.0 ESE 12 14 1011.7 - - - - - - - - -
22/04:00am 26.2 ESE 13 14 1011.3 - - - - - - - - -
22/03:30am 26.1 ESE 12 14 1011.2 - - - - - - - - -
22/03:00am 26.1 ESE 14 15 1011.0 - - - - - - - - -
22/02:30am 26.2 ESE 14 16 1011.1 - - - - - - - - -
22/02:00am 26.4 ESE 14 16 1011.2 - - - - - - - - -
22/01:30am 26.5 ESE 13 16 1011.4 - - - - - - - - -
22/01:00am 26.4 E 14 16 1011.6 - - - - - - - - -
22/12:30am 26.1 E 15 18 1012.0 - - - - - - - - -
22/12:00am 26.7 ESE 14 15 1012.2 - - - - - - - - -
 
Date/Time
EST
Temp

°C
Wind Pressure Rain
since 9am
mm
Weather Cloud Vis
km
Sea
Height
m
Swell
Dir
 
Speed
knots
Gust
knots
hPa Trend Height
m
Period
s
Dir
21/11:30pm 26.4 ESE 14 16 1012.6 - - - - - - - - -
21/11:00pm 26.6 E 14 15 1012.6 - - - - - - - - -
21/10:30pm 26.4 ESE 14 17 1012.8 - - - - - - - - -
21/10:00pm 26.5 E 16 17 1013.1 - - - - - - - - -
21/09:30pm 26.7 E 14 16 1013.0 - - - - - - - - -
21/09:00pm 26.6 ESE 16 18 1012.5 - - - - - - - - -
21/08:30pm 26.6 E 16 17 1012.3 - - - - - - - - -
21/08:00pm 26.4 ESE 14 15 1012.0 - - - - - - - - -
21/07:30pm 26.5 ESE 13 15 1011.9 - - - - - - - - -
21/07:00pm 26.3 SE 10 14 1011.7 - - - - - - - - -
21/06:30pm 26.6 SE 10 13 1011.7 - - - - - - - - -
21/06:00pm 26.4 SSE 10 13 1011.4 - - - - - - - - -
21/05:30pm 26.5 SSE 9 12 1011.5 - - - - - - - - -
21/05:00pm 26.6 SSE 10 14 1011.2 - - - - - - - - -
21/04:30pm 26.5 SSE 10 13 1011.3 - - - - - - - - -
21/04:00pm 26.4 SSE 10 13 1011.1 - - - - - - - - -
21/03:30pm 26.6 SSE 10 12 1011.2 - - - - - - - - -
21/03:00pm 26.6 SSE 9 13 1011.7 - - - - - - - - -
21/02:30pm 26.3 SE 11 13 1011.9 - - - - - - - - -
21/02:00pm 26.3 SSE 10 12 1012.3 - - - - - - - - -
21/01:30pm 26.3 SSE 10 14 1012.7 - - - - - - - - -
21/01:00pm 26.2 SSE 9 12 1012.9 - - - - - - - - -
21/12:30pm 26.2 SE 9 11 1013.2 - - - - - - - - -
21/12:00pm 26.1 SE 11 14 1013.6 - - - - - - - - -
21/11:30am 26.3 ESE 11 13 1013.8 - - - - - - - - -
21/11:00am 26.3 ESE 10 12 1013.9 - - - - - - - - -
21/10:30am 26.4 ESE 11 13 1014.0 - - - - - - - - -
21/10:00am 26.5 E 12 14 1013.8 - - - - - - - - -
21/09:30am 26.3 ESE 11 14 1014.1 - - - - - - - - -
21/09:00am 26.7 ESE 13 16 1013.9 - - - - - - - - -
21/08:30am 26.4 ESE 14 16 1014.0 - - - - - - - - -
21/08:00am 26.4 ESE 15 16 1013.8 - - - - - - - - -
21/07:30am 26.4 ESE 15 17 1013.7 - - - - - - - - -
21/07:00am 26.1 ESE 15 16 1013.4 - - - - - - - - -
21/06:30am 26.2 ESE 15 17 1013.2 - - - - - - - - -
21/06:00am 25.7 ESE 14 16 1012.7 - - - - - - - - -
21/05:30am 25.9 ESE 15 18 1012.4 - - - - - - - - -
21/05:00am 25.8 ESE 14 17 1011.8 - - - - - - - - -
21/04:30am 25.6 ESE 15 17 1011.7 - - - - - - - - -
21/04:00am 26.0 ESE 15 17 1011.7 - - - - - - - - -
21/03:30am 25.9 E 14 16 1011.8 - - - - - - - - -
21/03:00am 26.1 E 15 18 1011.8 - - - - - - - - -
21/02:30am 26.4 E 16 18 1011.9 - - - - - - - - -
21/02:00am 26.0 E 16 18 1012.1 - - - - - - - - -
21/01:30am 26.1 E 16 18 1012.3 - - - - - - - - -
21/01:00am 26.1 E 17 18 1012.7 - - - - - - - - -
21/12:30am 26.2 E 16 18 1013.0 - - - - - - - - -
21/12:00am 26.4 ESE 17 19 1013.3 - - - - - - - - -
 
Date/Time
EST
Temp

°C
Wind Pressure Rain
since 9am
mm
Weather Cloud Vis
km
Sea
Height
m
Swell
Dir
 
Speed
knots
Gust
knots
hPa Trend Height
m
Period
s
Dir
20/11:30pm 26.7 ESE 16 19 1013.6 - - - - - - - - -
20/11:00pm 26.6 ESE 17 - 1013.8 - - - - - - - - -
20/10:30pm 26.5 ESE 17 19 1014.1 - - - - - - - - -
20/10:00pm 26.6 SE 18 20 1014.0 - - - - - - - - -
20/09:30pm 26.4 ESE 18 22 1013.9 - - - - - - - - -
20/09:00pm 26.5 SE 18 20 1013.7 - - - - - - - - -
20/08:30pm 26.5 SE 17 21 1013.5 - - - - - - - - -
20/08:00pm 26.9 SE 14 18 1012.9 - - - - - - - - -
20/07:30pm 26.6 SE 15 17 1012.8 - - - - - - - - -
20/07:00pm 26.7 SE 14 16 1012.4 - - - - - - - - -
20/06:30pm 26.8 ESE 13 15 1012.2 - - - - - - - - -
20/06:00pm 26.7 SE 13 15 1011.7 - - - - - - - - -
20/05:30pm 26.7 SE 12 15 1011.7 - - - - - - - - -
20/05:00pm 26.7 ESE 13 16 1011.3 - - - - - - - - -
20/04:30pm 26.7 ESE 14 16 1011.3 - - - - - - - - -
20/04:00pm 26.7 SE 13 16 1011.3 - - - - - - - - -
20/03:30pm 26.8 SE 14 16 1011.6 - - - - - - - - -
20/03:00pm 26.7 SE 14 16 1011.7 - - - - - - - - -
20/02:30pm 26.7 SE 14 17 1012.0 - - - - - - - - -
20/02:00pm 26.6 SE 14 16 1012.3 - - - - - - - - -
20/01:30pm 26.8 ESE 15 17 1012.6 - - - - - - - - -
20/01:00pm 26.7 ESE 14 16 1012.8 - - - - - - - - -
20/12:30pm 26.5 ESE 14 16 1013.2 - - - - - - - - -
20/12:00pm 27.0 ESE 14 16 1013.7 - - - - - - - - -
20/11:30am 26.7 ESE 14 16 1014.3 - - - - - - - - -
20/11:00am 26.9 ESE 16 16 1014.5 - - - - - - - - -
20/10:30am 26.9 ESE 16 19 1014.6 - - - - - - - - -
20/10:00am 26.8 ESE 17 19 1014.7 - - - - - - - - -
20/09:30am 26.9 ESE 18 19 1014.6 - - - - - - - - -
20/09:00am 26.9 ESE 17 19 1014.4 - - - - - - - - -
20/08:30am 26.8 ESE 18 20 1014.3 - - - - - - - - -
20/08:00am 27.1 E 17 20 1014.0 - - - - - - - - -
20/07:30am 26.8 E 17 21 1013.8 - - - - - - - - -
20/07:00am 26.8 E 18 21 1013.4 - - - - - - - - -
20/06:30am 26.5 E 18 22 1013.2 - - - - - - - - -
20/06:00am 26.6 E 18 22 1012.5 - - - - - - - - -
20/05:30am 26.5 E 19 22 1012.6 - - - - - - - - -
20/05:00am 26.5 E 18 19 1012.2 - - - - - - - - -
20/04:30am 26.4 ESE 17 20 1012.1 - - - - - - - - -
20/04:00am 26.3 E 17 19 1011.6 - - - - - - - - -
20/03:30am 26.4 ESE 16 18 1011.7 - - - - - - - - -
20/03:00am 26.4 ESE 16 19 1011.5 - - - - - - - - -
20/02:30am 26.5 E 17 19 1011.7 - - - - - - - - -
20/02:00am 26.4 E 17 18 1011.6 - - - - - - - - -
20/01:30am 26.5 E 16 18 1012.0 - - - - - - - - -
20/01:00am 26.4 ESE 16 17 1012.4 - - - - - - - - -
20/12:30am 26.4 E 15 17 1012.7 - - - - - - - - -
20/12:00am 26.5 E 15 17 1013.2 - - - - - - - - -
 
Date/Time
EST
Temp

°C
Wind Pressure Rain
since 9am
mm
Weather Cloud Vis
km
Sea
Height
m
Swell
Dir
 
Speed
knots
Gust
knots
hPa Trend Height
m
Period
s
Dir
19/11:30pm 26.7 E 16 18 1013.5 - - - - - - - - -
19/11:00pm 26.7 ESE 16 18 1013.8 - - - - - - - - -
19/10:30pm 26.7 ESE 16 18 1014.0 - - - - - - - - -
19/10:00pm 26.6 ESE 15 17 1013.8 - - - - - - - - -
19/09:30pm 26.8 ESE 14 17 1013.8 - - - - - - - - -
19/09:00pm 26.7 ESE 15 17 1013.4 - - - - - - - - -
19/08:30pm 26.7 ESE 15 17 1013.4 - - - - - - - - -
19/08:00pm 26.9 ESE 16 18 1013.2 - - - - - - - - -
19/07:30pm 26.8 SE 15 18 1013.2 - - - - - - - - -
19/07:00pm 26.8 SE 14 18 1012.9 - - - - - - - - -
19/06:30pm 27.0 ESE 15 17 1012.9 - - - - - - - - -
19/06:00pm 26.9 SE 11 16 1012.5 - - - - - - - - -
19/05:30pm 27.1 SE 13 15 1012.6 - - - - - - - - -
19/05:00pm 26.9 SE 12 14 1012.2 - - - - - - - - -
19/04:30pm 27.0 SE 13 15 1012.2 - - - - - - - - -
19/04:00pm 27.0 ESE 12 14 1012.2 - - - - - - - - -
19/03:30pm 27.0 ESE 12 14 1012.3 - - - - - - - - -
19/03:00pm 27.0 ESE 13 14 1012.6 - - - - - - - - -
19/02:30pm 26.9 ESE 13 15 1012.8 - - - - - - - - -
19/02:00pm 27.0 ESE 13 13 1013.1 - - - - - - - - -
19/01:30pm 27.1 ESE 12 13 1013.2 - - - - - - - - -

Other Formats:

Comma delimited format used in spreadsheet applications
http://www.bom.gov.au/fwo/IDQ60701/IDQ60701.95288.axf

JavaScript Object Notation format (JSON) in row-major order
http://www.bom.gov.au/fwo/IDQ60701/IDQ60701.95288.json